Time;durP1;ratioP1;P1;durP2;ratioP2;P2;SDS_P1;SDS_P2;PMS_P1;PMS_P2;Temp;Humidity;BMP_temperature;BMP_pressure;BME280_temperature;BME280_humidity;BME280_pressure;Samples;Min_cycle;Max_cycle;Signal;HPM_P1;HPM_P2
2023/11/27 00:02:16;;;;;;;9.70;6.75;;;14.70;87.10;;;;;;4187907;28;20047;-54
2023/11/27 00:04:57;;;;;;;11.88;7.13;;;14.70;87.20;;;;;;4184588;28;20055;-52
2023/11/27 00:07:38;;;;;;;11.60;7.50;;;14.70;87.40;;;;;;4187367;28;20052;-51
2023/11/27 00:10:19;;;;;;;14.85;6.53;;;14.70;87.50;;;;;;4168550;28;20075;-54
2023/11/27 00:13:02;;;;;;;12.43;7.63;;;14.70;87.50;;;;;;4177360;28;20056;-51
2023/11/27 00:15:42;;;;;;;11.07;6.70;;;14.70;87.40;;;;;;4202482;28;20141;-52
2023/11/27 00:18:23;;;;;;;13.93;7.60;;;14.70;87.60;;;;;;4203984;28;20101;-52
2023/11/27 00:21:05;;;;;;;13.50;7.55;;;14.70;87.50;;;;;;4182280;28;20056;-53
2023/11/27 00:23:46;;;;;;;13.38;8.20;;;14.70;87.80;;;;;;4186141;28;20051;-53
2023/11/27 00:26:27;;;;;;;12.93;7.20;;;14.70;87.90;;;;;;4188116;28;20048;-51
2023/11/27 00:29:11;;;;;;;16.13;8.20;;;14.60;87.60;;;;;;4187268;28;20415;-52
2023/11/27 00:31:52;;;;;;;16.80;8.35;;;14.60;87.90;;;;;;4187405;28;20069;-51
2023/11/27 00:34:33;;;;;;;16.42;9.02;;;14.60;88.50;;;;;;4187541;28;20079;-55
2023/11/27 00:37:16;;;;;;;17.25;7.53;;;14.60;87.60;;;;;;4187003;28;20059;-53
2023/11/27 00:39:57;;;;;;;15.70;8.52;;;14.60;87.90;;;;;;4187456;28;20051;-52
2023/11/27 00:42:39;;;;;;;17.98;9.80;;;14.60;87.90;;;;;;4186428;28;20442;-52
2023/11/27 00:45:21;;;;;;;14.95;8.68;;;14.60;87.90;;;;;;4187172;28;20052;-52
2023/11/27 00:48:02;;;;;;;22.25;10.23;;;14.60;88.00;;;;;;4187544;28;20051;-53
2023/11/27 00:50:43;;;;;;;15.25;9.15;;;14.50;87.90;;;;;;4186461;28;21713;-55
2023/11/27 00:53:24;;;;;;;13.90;9.10;;;14.60;88.10;;;;;;4185780;28;20182;-52
2023/11/27 00:56:06;;;;;;;13.32;9.45;;;14.60;88.90;;;;;;4187249;28;20059;-52
2023/11/27 00:58:47;;;;;;;15.77;11.07;;;14.50;88.00;;;;;;4187447;28;20079;-50
2023/11/27 01:01:29;;;;;;;17.80;11.38;;;14.50;88.00;;;;;;4187604;28;20058;-51
2023/11/27 01:04:11;;;;;;;16.65;11.52;;;14.50;88.10;;;;;;4186445;28;20152;-50
2023/11/27 01:06:52;;;;;;;17.38;11.82;;;14.50;89.00;;;;;;4186542;28;20059;-50
2023/11/27 01:09:35;;;;;;;;;;;14.50;88.10;;;;;;4186827;28;20094;-53
2023/11/27 01:12:16;;;;;;;18.17;11.45;;;14.50;88.30;;;;;;4170239;28;19929;-51
2023/11/27 01:14:57;;;;;;;21.98;13.55;;;14.50;88.80;;;;;;4175789;28;20071;-51
2023/11/27 01:17:40;;;;;;;23.83;13.23;;;14.50;88.70;;;;;;4187578;28;20407;-53
2023/11/27 01:20:22;;;;;;;24.73;15.70;;;14.40;88.70;;;;;;4187188;28;20609;-51
2023/11/27 01:23:03;;;;;;;24.05;13.98;;;14.40;88.70;;;;;;4186292;28;20059;-48
2023/11/27 01:25:43;;;;;;;28.20;16.05;;;14.40;88.50;;;;;;4187214;28;20411;-51
2023/11/27 01:28:24;;;;;;;25.15;15.27;;;14.40;88.50;;;;;;4170785;28;20063;-49
2023/11/27 01:31:06;;;;;;;21.00;14.63;;;14.40;88.70;;;;;;4161264;28;20056;-51
2023/11/27 01:33:49;;;;;;;21.60;15.40;;;14.50;89.10;;;;;;4186843;28;20059;-50
2023/11/27 01:36:30;;;;;;;24.55;14.50;;;14.50;88.90;;;;;;4180007;28;20048;-52
2023/11/27 01:39:11;;;;;;;21.40;13.68;;;14.50;88.60;;;;;;4185599;28;20059;-51
2023/11/27 01:41:53;;;;;;;26.08;15.35;;;14.60;88.60;;;;;;4184064;28;20051;-50
2023/11/27 01:44:34;;;;;;;19.75;14.55;;;14.70;88.60;;;;;;4185488;28;20182;-49
2023/11/27 01:47:15;;;;;;;24.55;17.38;;;14.70;88.30;;;;;;4174916;28;20052;-50
2023/11/27 01:50:01;;;;;;;26.13;14.90;;;14.70;88.00;;;;;;4189519;28;20064;-53
2023/11/27 01:52:43;;;;;;;21.92;14.98;;;14.80;87.80;;;;;;4189451;28;20044;-50
2023/11/27 01:55:26;;;;;;;22.27;15.23;;;14.80;87.90;;;;;;4189736;28;20075;-50
2023/11/27 01:58:08;;;;;;;21.00;14.05;;;14.80;88.00;;;;;;4188830;28;20050;-49
2023/11/27 02:00:48;;;;;;;19.90;14.05;;;14.90;87.80;;;;;;4186335;28;20051;-53
2023/11/27 02:03:30;;;;;;;19.40;14.00;;;14.90;87.50;;;;;;4188608;28;20052;-48
2023/11/27 02:06:13;;;;;;;19.40;13.35;;;14.90;87.30;;;;;;4188410;28;20494;-49
2023/11/27 02:08:56;;;;;;;16.73;12.82;;;15.00;87.30;;;;;;4188704;28;20051;-50
2023/11/27 02:11:44;;;;;;;19.75;13.32;;;15.00;87.50;;;;;;4182529;28;20052;-48
2023/11/27 02:14:25;;;;;;;20.13;11.82;;;15.00;88.10;;;;;;4172184;28;20171;-48
2023/11/27 02:17:08;;;;;;;15.73;11.27;;;15.10;87.20;;;;;;4172123;28;20063;-49
2023/11/27 02:19:49;;;;;;;20.10;11.70;;;15.20;87.10;;;;;;4186511;28;20056;-49
2023/11/27 02:22:31;;;;;;;15.33;11.90;;;15.20;86.70;;;;;;4188441;28;20043;-48
2023/11/27 02:25:13;;;;;;;12.75;10.57;;;15.30;86.50;;;;;;4189448;28;20067;-51
2023/11/27 02:27:55;;;;;;;18.23;11.55;;;15.20;86.20;;;;;;4189095;28;20063;-47
2023/11/27 02:30:36;;;;;;;14.27;10.77;;;15.30;86.10;;;;;;4175606;28;20059;-52
2023/11/27 02:33:17;;;;;;;16.92;9.43;;;15.20;86.10;;;;;;4188554;28;20077;-48
2023/11/27 02:35:58;;;;;;;15.60;9.35;;;15.20;86.30;;;;;;4175061;28;20517;-48
2023/11/27 02:38:39;;;;;;;12.63;8.23;;;15.20;86.20;;;;;;4184712;28;20051;-52
2023/11/27 02:41:21;;;;;;;11.13;7.80;;;15.30;86.20;;;;;;4189027;28;20060;-50
2023/11/27 02:44:02;;;;;;;17.23;8.68;;;15.30;86.20;;;;;;4172279;28;20145;-50
2023/11/27 02:46:44;;;;;;;6.93;5.68;;;15.30;86.40;;;;;;4172502;28;20068;-52
2023/11/27 02:49:25;;;;;;;9.02;5.13;;;15.30;86.30;;;;;;4171341;28;20056;-48
2023/11/27 02:52:06;;;;;;;4.05;3.70;;;15.30;86.10;;;;;;4174633;28;20072;-51
2023/11/27 02:54:47;;;;;;;5.53;3.75;;;15.30;86.10;;;;;;4187158;28;20071;-51
2023/11/27 02:57:30;;;;;;;4.20;3.80;;;15.30;85.90;;;;;;4188779;28;20052;-50
2023/11/27 03:00:12;;;;;;;4.97;4.47;;;15.40;85.90;;;;;;4186538;28;20187;-51
2023/11/27 03:02:53;;;;;;;5.88;5.22;;;15.30;85.90;;;;;;4188915;28;20059;-51
2023/11/27 03:05:35;;;;;;;6.03;4.43;;;15.30;85.90;;;;;;4187521;28;20068;-49
2023/11/27 03:08:18;;;;;;;5.65;4.32;;;15.20;85.60;;;;;;4186011;28;20055;-48
2023/11/27 03:10:59;;;;;;;6.60;4.80;;;15.20;85.60;;;;;;4188879;28;20097;-52
2023/11/27 03:13:41;;;;;;;9.43;6.18;;;15.20;85.00;;;;;;4188347;28;20482;-48
2023/11/27 03:16:22;;;;;;;7.03;6.32;;;15.30;84.40;;;;;;4188826;28;20059;-49
2023/11/27 03:19:03;;;;;;;10.13;7.10;;;15.30;84.10;;;;;;4188530;28;20051;-50
2023/11/27 03:21:44;;;;;;;8.63;6.95;;;15.30;84.00;;;;;;4187393;28;20071;-52
2023/11/27 03:24:25;;;;;;;9.73;6.82;;;15.30;84.30;;;;;;4172793;28;20070;-51
2023/11/27 03:27:06;;;;;;;10.10;6.63;;;15.30;84.60;;;;;;4171619;28;20060;-51
2023/11/27 03:29:49;;;;;;;8.57;7.43;;;15.30;84.40;;;;;;4170645;28;20074;-47
2023/11/27 03:32:30;;;;;;;8.52;6.40;;;15.40;84.70;;;;;;4170128;28;20432;-48
2023/11/27 03:35:11;;;;;;;8.43;6.63;;;15.40;84.60;;;;;;4183162;28;20384;-48
2023/11/27 03:37:54;;;;;;;9.43;7.25;;;15.40;84.30;;;;;;4188443;28;20059;-49
2023/11/27 03:40:35;;;;;;;;;;;15.40;84.50;;;;;;4188580;28;20056;-47
2023/11/27 03:43:16;;;;;;;10.93;7.63;;;15.40;84.60;;;;;;4171439;28;19928;-52
2023/11/27 03:45:59;;;;;;;8.70;7.18;;;15.50;84.80;;;;;;4171207;28;20048;-49
2023/11/27 03:48:40;;;;;;;7.38;6.18;;;15.50;84.40;;;;;;4171548;28;20064;-49
2023/11/27 03:51:20;;;;;;;7.95;6.18;;;15.50;84.50;;;;;;4183650;28;20491;-48
2023/11/27 03:54:01;;;;;;;6.97;6.38;;;15.50;84.20;;;;;;4175182;28;20055;-48
2023/11/27 03:56:43;;;;;;;7.80;7.10;;;15.50;84.30;;;;;;4170333;28;20530;-51
2023/11/27 03:59:24;;;;;;;8.57;6.40;;;15.50;84.30;;;;;;4171666;28;20110;-49
2023/11/27 04:02:08;;;;;;;;;;;15.50;84.50;;;;;;4169323;28;20187;-49
2023/11/27 04:04:48;;;;;;;7.53;6.75;;;15.50;84.60;;;;;;4170908;28;20449;-52
2023/11/27 04:07:31;;;;;;;8.50;6.82;;;15.50;84.80;;;;;;4170898;28;20749;-48
2023/11/27 04:10:15;;;;;;;6.72;5.72;;;15.40;84.70;;;;;;4186522;28;20090;-51
2023/11/27 04:12:59;;;;;;;7.95;6.18;;;15.40;84.70;;;;;;4179094;28;20484;-52
2023/11/27 04:15:42;;;;;;;7.15;5.85;;;15.50;84.80;;;;;;4187464;28;20755;-48
2023/11/27 04:18:24;;;;;;;8.43;5.05;;;15.50;84.60;;;;;;4172500;28;20618;-48
2023/11/27 04:21:06;;;;;;;6.82;5.07;;;15.50;84.50;;;;;;4185917;28;20130;-48
2023/11/27 04:23:47;;;;;;;6.50;5.10;;;15.60;84.40;;;;;;4187294;28;20055;-51
2023/11/27 04:26:28;;;;;;;6.45;4.28;;;15.60;84.30;;;;;;4171014;28;20064;-50
2023/11/27 04:29:09;;;;;;;5.68;4.47;;;15.60;84.00;;;;;;4174207;28;20075;-48
2023/11/27 04:31:50;;;;;;;4.60;3.97;;;15.60;83.90;;;;;;4188049;28;20060;-51
2023/11/27 04:34:33;;;;;;;5.75;4.03;;;15.60;83.90;;;;;;4187824;28;20102;-53
2023/11/27 04:37:14;;;;;;;3.90;3.38;;;15.60;83.80;;;;;;4186882;28;20667;-53
2023/11/27 04:39:56;;;;;;;3.20;2.92;;;15.60;83.50;;;;;;4187854;28;20075;-51
2023/11/27 04:42:38;;;;;;;3.97;2.70;;;15.60;83.60;;;;;;4186733;28;20055;-48
2023/11/27 04:45:19;;;;;;;6.95;2.65;;;15.60;83.80;;;;;;4186993;28;20059;-51
2023/11/27 04:48:00;;;;;;;3.10;2.80;;;15.60;83.70;;;;;;4186404;28;20195;-51
2023/11/27 04:50:43;;;;;;;3.17;2.67;;;15.60;83.60;;;;;;4186832;28;20047;-49
2023/11/27 04:53:24;;;;;;;3.20;3.00;;;15.60;83.80;;;;;;4186724;28;20057;-50
2023/11/27 04:56:06;;;;;;;2.85;2.65;;;15.70;83.80;;;;;;4187348;28;20051;-50
2023/11/27 04:58:47;;;;;;;2.83;2.35;;;15.60;83.60;;;;;;4187483;28;20259;-51
2023/11/27 05:01:29;;;;;;;2.97;1.98;;;15.60;83.50;;;;;;4187612;28;20129;-52
2023/11/27 05:04:10;;;;;;;2.05;1.95;;;15.60;83.60;;;;;;4186867;28;20521;-49
2023/11/27 05:06:52;;;;;;;1.80;1.70;;;15.70;83.60;;;;;;4186746;28;20060;-49
2023/11/27 05:09:36;;;;;;;1.60;1.30;;;15.70;83.40;;;;;;4187403;28;20056;-52
2023/11/27 05:12:18;;;;;;;3.05;1.40;;;15.80;82.90;;;;;;4187154;28;20060;-49
2023/11/27 05:15:05;;;;;;;1.45;1.35;;;15.80;82.90;;;;;;4187313;28;20121;-52
2023/11/27 05:17:47;;;;;;;1.73;1.35;;;15.90;82.90;;;;;;4187358;28;20105;-51
2023/11/27 05:20:28;;;;;;;1.70;1.58;;;15.90;82.60;;;;;;4190423;28;20118;-50
2023/11/27 05:23:11;;;;;;;3.13;1.50;;;15.90;82.40;;;;;;4189781;28;20047;-48
2023/11/27 05:25:52;;;;;;;1.52;1.08;;;15.90;82.50;;;;;;4189773;28;20191;-49
2023/11/27 05:28:33;;;;;;;0.82;0.82;;;15.80;82.70;;;;;;4189922;28;20060;-48
2023/11/27 05:31:14;;;;;;;1.20;1.20;;;15.80;82.70;;;;;;4187463;28;20051;-48
2023/11/27 05:33:56;;;;;;;1.52;1.52;;;15.80;83.80;;;;;;4187538;28;20091;-50
2023/11/27 05:36:37;;;;;;;1.48;1.48;;;15.80;82.50;;;;;;4156668;28;20060;-48
2023/11/27 05:39:19;;;;;;;1.90;1.77;;;15.80;82.40;;;;;;4166725;28;20052;-48
2023/11/27 05:42:02;;;;;;;1.90;1.90;;;15.80;81.80;;;;;;4189572;28;20059;-48
2023/11/27 05:44:44;;;;;;;2.47;2.28;;;15.80;81.60;;;;;;4170495;28;20391;-48
2023/11/27 05:47:25;;;;;;;1.80;1.70;;;15.80;81.70;;;;;;4172559;28;20441;-51
2023/11/27 05:50:07;;;;;;;2.05;1.92;;;15.80;81.20;;;;;;4170319;28;20064;-47
2023/11/27 05:52:48;;;;;;;2.63;2.45;;;15.80;81.10;;;;;;4177246;28;20055;-48
2023/11/27 05:55:31;;;;;;;2.90;2.70;;;15.90;81.00;;;;;;4185654;28;20055;-48
2023/11/27 05:58:12;;;;;;;2.40;2.30;;;15.90;80.80;;;;;;4187798;28;20063;-48
2023/11/27 06:00:54;;;;;;;2.78;2.58;;;15.80;80.70;;;;;;4188889;28;20055;-50
2023/11/27 06:03:36;;;;;;;2.05;1.95;;;15.80;80.90;;;;;;4189664;28;20056;-50
2023/11/27 06:06:18;;;;;;;2.15;1.90;;;15.80;81.80;;;;;;4171802;28;20795;-50
2023/11/27 06:09:02;;;;;;;2.00;1.90;;;15.80;80.00;;;;;;4171402;28;20168;-48
2023/11/27 06:11:44;;;;;;;3.17;2.00;;;15.80;80.00;;;;;;4172971;28;20147;-47
2023/11/27 06:14:25;;;;;;;2.45;2.15;;;15.80;80.30;;;;;;4178282;28;20554;-48
2023/11/27 06:17:06;;;;;;;1.50;1.50;;;15.80;79.10;;;;;;4189460;28;20051;-48
2023/11/27 06:19:48;;;;;;;1.90;1.80;;;15.70;79.40;;;;;;4189338;28;20078;-50
2023/11/27 06:22:32;;;;;;;3.75;1.70;;;15.70;79.90;;;;;;4189267;28;20688;-47
2023/11/27 06:25:13;;;;;;;1.60;1.50;;;15.70;80.50;;;;;;4189360;28;20522;-51
2023/11/27 06:27:56;;;;;;;1.70;1.60;;;15.70;80.00;;;;;;4172864;28;20051;-50
2023/11/27 06:30:37;;;;;;;1.70;1.55;;;15.70;79.80;;;;;;4172691;28;20063;-52
2023/11/27 06:33:18;;;;;;;1.63;1.45;;;15.70;80.00;;;;;;4188153;28;20051;-49
2023/11/27 06:36:00;;;;;;;1.48;1.48;;;15.70;79.90;;;;;;4188189;28;20059;-50
2023/11/27 06:38:41;;;;;;;1.85;1.40;;;15.70;79.70;;;;;;4189769;28;20185;-49
2023/11/27 06:41:23;;;;;;;1.40;1.40;;;15.70;79.10;;;;;;4189094;28;20054;-47
2023/11/27 06:44:09;;;;;;;2.30;1.50;;;15.70;79.20;;;;;;4189133;28;20051;-49
2023/11/27 06:46:49;;;;;;;1.65;1.55;;;15.70;78.30;;;;;;4187625;28;20051;-47
2023/11/27 06:49:30;;;;;;;1.20;1.20;;;15.70;77.50;;;;;;4188791;28;20101;-48
2023/11/27 06:52:11;;;;;;;1.50;1.42;;;15.70;78.40;;;;;;4187466;28;20055;-49
2023/11/27 06:54:53;;;;;;;1.40;1.30;;;15.70;78.70;;;;;;4172773;28;20067;-48
2023/11/27 06:57:34;;;;;;;1.45;1.38;;;15.70;79.60;;;;;;4170821;28;20511;-50
2023/11/27 07:00:17;;;;;;;1.10;1.10;;;15.70;79.40;;;;;;4181983;28;20055;-48
2023/11/27 07:02:58;;;;;;;1.58;1.48;;;15.70;79.40;;;;;;4184201;28;20059;-52
2023/11/27 07:05:39;;;;;;;1.52;1.52;;;15.80;79.20;;;;;;4168628;28;20499;-50
2023/11/27 07:08:20;;;;;;;1.30;1.30;;;15.80;79.50;;;;;;4188168;28;20060;-49
2023/11/27 07:11:02;;;;;;;1.45;1.45;;;15.80;79.10;;;;;;4172236;28;20044;-49
2023/11/27 07:13:44;;;;;;;1.80;1.70;;;15.80;78.60;;;;;;4171507;28;20094;-49
2023/11/27 07:16:27;;;;;;;1.70;1.35;;;15.80;78.00;;;;;;4172324;28;20094;-48
2023/11/27 07:19:08;;;;;;;1.60;1.50;;;15.80;77.80;;;;;;4184939;28;20051;-50
2023/11/27 07:21:50;;;;;;;1.60;1.50;;;15.70;77.90;;;;;;4185264;28;20047;-51
2023/11/27 07:24:31;;;;;;;1.55;1.52;;;15.70;78.40;;;;;;4188466;28;20053;-47
2023/11/27 07:27:12;;;;;;;1.80;1.70;;;15.80;78.40;;;;;;4187676;28;20098;-51
2023/11/27 07:29:53;;;;;;;1.55;1.55;;;15.80;78.10;;;;;;4187670;28;20082;-48
2023/11/27 07:32:35;;;;;;;1.50;1.50;;;15.70;77.50;;;;;;4169905;28;20044;-48
2023/11/27 07:35:16;;;;;;;1.58;1.58;;;15.80;77.00;;;;;;4187632;28;20072;-48
2023/11/27 07:37:57;;;;;;;1.30;1.30;;;15.70;77.50;;;;;;4188192;28;20055;-49
2023/11/27 07:40:38;;;;;;;1.52;1.52;;;15.70;77.20;;;;;;4171437;28;20047;-50
2023/11/27 07:43:19;;;;;;;1.52;1.52;;;15.70;76.30;;;;;;4171490;28;20044;-49
2023/11/27 07:46:01;;;;;;;1.80;1.80;;;15.70;76.10;;;;;;4174114;28;20052;-49
2023/11/27 07:48:43;;;;;;;2.47;1.80;;;15.60;76.10;;;;;;4171317;28;20056;-47
2023/11/27 07:51:24;;;;;;;2.13;2.03;;;15.50;76.30;;;;;;4174224;28;20113;-48
2023/11/27 07:54:06;;;;;;;3.13;1.85;;;15.40;76.10;;;;;;4187509;28;20043;-48
2023/11/27 07:56:47;;;;;;;;;;;15.40;75.90;;;;;;4187074;28;20603;-51
2023/11/27 07:59:28;;;;;;;2.15;2.05;;;15.30;74.70;;;;;;4186607;28;20029;-49
2023/11/27 08:02:09;;;;;;;2.20;2.10;;;15.30;74.80;;;;;;4187395;28;20170;-49
2023/11/27 08:04:51;;;;;;;1.90;1.90;;;15.30;75.00;;;;;;4187702;28;20294;-49
2023/11/27 08:07:33;;;;;;;2.03;2.00;;;15.40;74.80;;;;;;4187273;28;20089;-50
2023/11/27 08:10:16;;;;;;;2.47;2.28;;;15.40;73.80;;;;;;4187281;28;20138;-49
2023/11/27 08:12:57;;;;;;;1.70;1.70;;;15.40;73.60;;;;;;4187719;28;20052;-51
2023/11/27 08:15:38;;;;;;;1.85;1.85;;;15.40;74.00;;;;;;4173824;28;20104;-50
2023/11/27 08:18:19;;;;;;;;;;;15.30;73.20;;;;;;4187869;28;20052;-51
2023/11/27 08:21:05;;;;;;;2.35;2.15;;;15.20;74.00;;;;;;4187470;28;19931;-48
2023/11/27 08:23:47;;;;;;;2.28;2.17;;;15.20;74.10;;;;;;4186905;28;20059;-51
2023/11/27 08:26:39;;;;;;;2.17;2.10;;;15.10;74.10;;;;;;4174683;28;20118;-53
2023/11/27 08:29:21;;;;;;;2.33;2.22;;;15.10;74.10;;;;;;4169838;28;20084;-50
2023/11/27 08:32:01;;;;;;;2.33;2.22;;;15.10;73.90;;;;;;4184835;28;20043;-50
2023/11/27 08:34:43;;;;;;;2.55;2.40;;;15.20;73.10;;;;;;4186624;28;20063;-49
2023/11/27 08:37:25;;;;;;;2.72;2.53;;;15.20;72.60;;;;;;4184742;28;20059;-51
2023/11/27 08:40:09;;;;;;;2.30;2.20;;;15.30;72.90;;;;;;4186510;28;20056;-57
2023/11/27 08:42:51;;;;;;;2.83;2.72;;;15.30;73.30;;;;;;4186384;28;20079;-51
2023/11/27 08:45:33;;;;;;;2.65;2.55;;;15.30;72.80;;;;;;4181999;28;20576;-55
2023/11/27 08:48:15;;;;;;;3.28;3.17;;;15.30;72.50;;;;;;4184170;28;20056;-50
2023/11/27 08:50:56;;;;;;;3.03;2.92;;;15.20;72.00;;;;;;4185676;28;20131;-49
2023/11/27 08:53:40;;;;;;;3.08;2.92;;;15.20;71.70;;;;;;4172767;28;20151;-47
2023/11/27 08:56:21;;;;;;;2.88;2.78;;;15.20;72.00;;;;;;4173993;28;20060;-48
2023/11/27 08:59:02;;;;;;;2.97;2.88;;;15.10;72.30;;;;;;4185118;28;20129;-47
2023/11/27 09:01:43;;;;;;;2.80;2.70;;;15.10;72.30;;;;;;4175486;28;20071;-48
2023/11/27 09:04:25;;;;;;;3.50;3.30;;;15.10;71.90;;;;;;4191003;28;20051;-48
2023/11/27 09:07:06;;;;;;;3.17;3.00;;;15.10;71.40;;;;;;4171008;28;20523;-48
2023/11/27 09:09:49;;;;;;;2.65;2.55;;;15.10;71.70;;;;;;4167268;28;20052;-47
2023/11/27 09:12:31;;;;;;;3.38;3.17;;;15.10;70.80;;;;;;4160051;28;20065;-49
2023/11/27 09:15:12;;;;;;;2.85;2.75;;;15.00;71.20;;;;;;4174278;28;20128;-47
2023/11/27 09:17:53;;;;;;;3.17;2.88;;;15.00;70.40;;;;;;4173450;28;20051;-47
2023/11/27 09:20:35;;;;;;;3.13;3.03;;;15.00;70.90;;;;;;4184164;28;20522;-47
2023/11/27 09:23:16;;;;;;;3.15;2.95;;;15.00;72.40;;;;;;4173784;28;20083;-47
2023/11/27 09:25:58;;;;;;;3.50;3.30;;;15.00;71.90;;;;;;4180568;28;20391;-48
2023/11/27 09:28:39;;;;;;;3.05;2.95;;;15.00;71.60;;;;;;4189811;28;20499;-48
2023/11/27 09:31:21;;;;;;;3.30;3.20;;;15.00;70.90;;;;;;4185389;28;20120;-50
2023/11/27 09:34:03;;;;;;;3.30;3.20;;;15.00;70.90;;;;;;4187881;28;20047;-49
2023/11/27 09:36:45;;;;;;;3.40;3.20;;;14.90;70.60;;;;;;4189504;28;20110;-49
2023/11/27 09:39:35;;;;;;;3.50;3.30;;;14.90;70.60;;;;;;4189269;28;20063;-49
2023/11/27 09:42:18;;;;;;;3.92;3.63;;;14.90;70.50;;;;;;4190226;28;20420;-50
2023/11/27 09:45:00;;;;;;;3.63;3.42;;;14.90;70.30;;;;;;4190079;28;20051;-49
2023/11/27 09:47:43;;;;;;;3.80;3.60;;;14.80;70.30;;;;;;4188505;28;20093;-47
2023/11/27 09:50:28;;;;;;;3.58;3.38;;;14.80;70.40;;;;;;4189119;28;20109;-50
2023/11/27 09:53:11;;;;;;;3.63;3.33;;;14.80;71.00;;;;;;4189751;28;20056;-49
2023/11/27 09:55:56;;;;;;;3.92;3.72;;;14.70;72.30;;;;;;4190073;28;20063;-50
2023/11/27 09:58:42;;;;;;;4.03;3.83;;;14.80;74.10;;;;;;4182929;28;20186;-51
2023/11/27 10:01:27;;;;;;;3.50;3.30;;;14.80;74.40;;;;;;4182138;28;20126;-50
2023/11/27 10:04:09;;;;;;;3.85;3.65;;;14.90;74.70;;;;;;4174908;28;20060;-59
2023/11/27 10:06:51;;;;;;;3.83;3.63;;;14.90;75.10;;;;;;4188862;28;20078;-61
2023/11/27 10:09:34;;;;;;;3.75;3.45;;;14.90;75.80;;;;;;4183012;28;20099;-62
2023/11/27 10:12:24;;;;;;;4.20;3.80;;;14.90;76.50;;;;;;4172066;28;20052;-53
2023/11/27 10:15:11;;;;;;;4.03;3.83;;;15.00;77.50;;;;;;4172891;28;20056;-52
2023/11/27 10:17:52;;;;;;;3.85;3.65;;;15.10;77.10;;;;;;4189483;28;20063;-51
2023/11/27 10:20:35;;;;;;;4.07;3.88;;;15.10;77.40;;;;;;4187475;28;20056;-50
2023/11/27 10:23:16;;;;;;;3.72;3.53;;;15.20;77.30;;;;;;4205660;28;20462;-54
2023/11/27 10:25:59;;;;;;;3.92;3.72;;;15.20;77.00;;;;;;4206085;28;20119;-49
2023/11/27 10:28:45;;;;;;;4.03;3.80;;;15.20;76.80;;;;;;4195944;28;20060;-61
2023/11/27 10:31:28;;;;;;;3.83;3.63;;;15.20;76.80;;;;;;4188361;28;20060;-61
2023/11/27 10:34:10;;;;;;;3.90;3.70;;;15.30;76.70;;;;;;4188544;28;20465;-61
2023/11/27 10:36:57;;;;;;;4.03;3.83;;;15.20;76.20;;;;;;4169260;28;20052;-60
2023/11/27 10:39:41;;;;;;;4.03;3.72;;;15.30;76.50;;;;;;4179091;28;20502;-61
2023/11/27 10:42:26;;;;;;;3.53;3.42;;;15.20;76.80;;;;;;4161011;28;20456;-61
2023/11/27 10:45:10;;;;;;;4.10;3.90;;;15.30;76.80;;;;;;4172043;28;20060;-60
2023/11/27 10:47:53;;;;;;;3.95;3.75;;;15.30;76.70;;;;;;4173030;28;20052;-61
2023/11/27 10:50:34;;;;;;;4.25;4.05;;;15.30;76.60;;;;;;4170111;28;20063;-61
2023/11/27 10:53:19;;;;;;;3.90;3.70;;;15.40;77.00;;;;;;4181835;28;20052;-60
2023/11/27 10:56:03;;;;;;;4.20;3.90;;;15.40;77.10;;;;;;4168302;28;20115;-60
2023/11/27 10:58:46;;;;;;;3.40;3.20;;;15.40;78.10;;;;;;4168233;28;20498;-61
2023/11/27 11:01:32;;;;;;;3.78;3.58;;;15.50;77.40;;;;;;4167151;28;20052;-60
2023/11/27 11:04:23;;;;;;;4.00;3.70;;;15.50;77.80;;;;;;4170265;28;20064;-60
2023/11/27 11:07:14;;;;;;;4.90;3.22;;;15.50;78.50;;;;;;4173120;28;20055;-61
2023/11/27 11:09:56;;;;;;;3.05;2.95;;;15.50;79.20;;;;;;4176292;28;20094;-61
2023/11/27 11:12:41;;;;;;;3.30;3.17;;;15.60;79.20;;;;;;4176161;28;20087;-61
2023/11/27 11:15:31;;;;;;;3.55;3.35;;;15.60;78.70;;;;;;4185380;28;20055;-61
2023/11/27 11:18:21;;;;;;;3.40;3.30;;;15.60;78.50;;;;;;4170267;28;20109;-60
2023/11/27 11:21:27;;;;;;;3.67;3.47;;;15.50;78.70;;;;;;4166865;28;20064;-61
2023/11/27 11:24:17;;;;;;;4.25;3.55;;;15.50;79.10;;;;;;4159619;28;20290;-60
2023/11/27 11:27:08;;;;;;;3.60;3.40;;;15.40;79.00;;;;;;4179225;28;20056;-56
2023/11/27 11:29:51;;;;;;;5.00;4.38;;;15.30;79.50;;;;;;4167658;28;20052;-56
2023/11/27 11:32:33;;;;;;;3.30;3.10;;;15.30;80.00;;;;;;4185126;28;20059;-61
2023/11/27 11:35:17;;;;;;;3.33;3.13;;;15.30;80.20;;;;;;4169149;28;20179;-61
2023/11/27 11:38:00;;;;;;;3.83;3.63;;;15.30;80.20;;;;;;4177617;28;20060;-61
2023/11/27 11:40:48;;;;;;;3.88;3.60;;;15.20;80.30;;;;;;4184538;28;20502;-60
2023/11/27 11:43:34;;;;;;;3.33;3.15;;;15.20;80.30;;;;;;4168945;28;20404;-61
2023/11/27 11:46:16;;;;;;;3.63;3.42;;;15.10;80.60;;;;;;4166321;28;20117;-61
2023/11/27 11:49:02;;;;;;;3.63;3.33;;;15.20;81.10;;;;;;4180745;28;20132;-61
2023/11/27 11:52:02;;;;;;;3.50;3.20;;;15.20;82.00;;;;;;4160511;28;20705;-61
2023/11/27 11:54:47;;;;;;;3.47;3.28;;;15.20;80.60;;;;;;4175532;28;20086;-61
2023/11/27 11:57:29;;;;;;;3.17;3.08;;;15.30;80.50;;;;;;4183821;28;20078;-61
2023/11/27 12:00:19;;;;;;;2.83;2.72;;;15.30;80.50;;;;;;4169993;28;20427;-62
2023/11/27 12:03:04;;;;;;;4.03;3.83;;;15.30;80.90;;;;;;4173785;28;20553;-60
2023/11/27 12:05:49;;;;;;;3.08;2.88;;;15.30;81.70;;;;;;4180618;28;20063;-56
2023/11/27 12:08:32;;;;;;;3.30;3.00;;;15.40;81.20;;;;;;4169920;28;20113;-54
2023/11/27 12:11:15;;;;;;;3.80;2.92;;;15.50;81.90;;;;;;4169919;28;20075;-54
2023/11/27 12:13:56;;;;;;;3.50;3.17;;;15.50;81.90;;;;;;4173669;28;20396;-53
2023/11/27 12:16:39;;;;;;;3.75;3.00;;;15.50;81.20;;;;;;4176586;28;20059;-59
2023/11/27 12:19:22;;;;;;;2.72;2.63;;;15.50;82.30;;;;;;4181608;28;20117;-59
2023/11/27 12:22:04;;;;;;;3.15;2.85;;;15.50;81.90;;;;;;4168289;28;20076;-53
2023/11/27 12:24:46;;;;;;;2.83;2.72;;;15.60;81.70;;;;;;4179277;28;20523;-57
2023/11/27 12:27:29;;;;;;;3.05;2.90;;;15.70;81.30;;;;;;4172014;28;20055;-55
2023/11/27 12:30:12;;;;;;;2.65;2.55;;;15.70;81.30;;;;;;4169189;28;20055;-58
2023/11/27 12:32:53;;;;;;;2.40;2.30;;;15.80;80.90;;;;;;4168080;28;20064;-57
2023/11/27 12:35:35;;;;;;;2.53;2.42;;;15.80;80.10;;;;;;4168381;28;20052;-61
2023/11/27 12:38:18;;;;;;;2.85;2.65;;;15.90;79.80;;;;;;4183319;28;20083;-52
2023/11/27 12:41:03;;;;;;;3.22;2.92;;;15.90;79.80;;;;;;4173777;28;20186;-53
2023/11/27 12:43:45;;;;;;;2.15;2.05;;;15.80;79.90;;;;;;4171027;28;20071;-57
2023/11/27 12:46:27;;;;;;;3.08;2.20;;;15.80;80.10;;;;;;4169093;28;20056;-53
2023/11/27 12:49:16;;;;;;;2.20;2.10;;;15.80;80.30;;;;;;4171860;28;20069;-51
2023/11/27 12:51:58;;;;;;;2.65;2.55;;;15.80;80.70;;;;;;4169055;28;20187;-48
2023/11/27 12:54:39;;;;;;;2.10;2.00;;;15.70;81.20;;;;;;4171409;28;20047;-54
2023/11/27 12:57:22;;;;;;;2.53;1.95;;;15.70;82.60;;;;;;4184358;28;20066;-51
2023/11/27 13:00:05;;;;;;;1.90;1.80;;;15.70;81.50;;;;;;4172201;28;20102;-50
2023/11/27 13:02:46;;;;;;;2.35;2.22;;;15.70;81.40;;;;;;4168829;28;20146;-55
2023/11/27 13:05:28;;;;;;;2.30;2.17;;;15.60;81.20;;;;;;4173572;28;20062;-53
2023/11/27 13:08:09;;;;;;;1.90;1.80;;;15.60;81.50;;;;;;4155174;28;20052;-55
2023/11/27 13:10:50;;;;;;;2.13;2.03;;;15.50;82.00;;;;;;4170413;28;20134;-52
2023/11/27 13:13:31;;;;;;;1.90;1.80;;;15.50;82.30;;;;;;4169931;28;20127;-57
2023/11/27 13:16:17;;;;;;;1.80;1.80;;;15.50;82.80;;;;;;4181240;28;20075;-53
2023/11/27 13:18:58;;;;;;;1.80;1.70;;;15.50;82.80;;;;;;4167502;28;20056;-50
2023/11/27 13:21:39;;;;;;;2.22;2.00;;;15.50;83.30;;;;;;4153259;28;20090;-51
2023/11/27 13:24:20;;;;;;;1.63;1.63;;;15.50;83.30;;;;;;4177207;28;20407;-51
2023/11/27 13:27:07;;;;;;;1.70;1.60;;;15.40;83.70;;;;;;4174939;28;20063;-50
2023/11/27 13:29:50;;;;;;;2.25;1.70;;;15.50;83.90;;;;;;4157444;28;20060;-53
2023/11/27 13:32:32;;;;;;;2.20;2.00;;;15.50;83.80;;;;;;4166538;28;20218;-48
2023/11/27 13:35:14;;;;;;;2.00;1.90;;;15.50;84.00;;;;;;4182870;28;20056;-51
2023/11/27 13:37:56;;;;;;;;;;;15.50;84.30;;;;;;4172846;28;20051;-49
2023/11/27 13:40:37;;;;;;;1.80;1.70;;;15.70;84.30;;;;;;4168749;28;20463;-46
2023/11/27 13:43:19;;;;;;;1.45;1.35;;;15.80;84.60;;;;;;4186079;28;20082;-46
2023/11/27 13:46:00;;;;;;;1.80;1.70;;;15.80;84.20;;;;;;4180288;28;20942;-50
2023/11/27 13:48:42;;;;;;;1.80;1.70;;;15.90;84.20;;;;;;4176287;28;20105;-55
2023/11/27 13:51:28;;;;;;;1.30;1.30;;;16.00;84.00;;;;;;4177191;28;20179;-52
2023/11/27 13:54:09;;;;;;;1.25;1.25;;;16.10;82.80;;;;;;4173807;28;20185;-52
2023/11/27 13:56:58;;;;;;;1.50;1.40;;;16.20;81.30;;;;;;4183763;28;20068;-47
2023/11/27 13:59:42;;;;;;;1.73;1.63;;;16.20;81.70;;;;;;4172938;28;20186;-49
2023/11/27 14:02:27;;;;;;;1.50;1.50;;;16.30;81.50;;;;;;4161210;28;20072;-56
2023/11/27 14:05:11;;;;;;;1.55;1.45;;;16.20;81.10;;;;;;4169736;28;20153;-54